createdAt,value
2019-02-06T09:14:46.434Z,49.40
2019-02-06T09:17:15.030Z,43.03
2019-02-06T09:19:43.684Z,42.50
2019-02-06T09:22:12.274Z,45.25
2019-02-06T09:24:41.006Z,46.42
2019-02-06T09:27:10.691Z,49.10
2019-02-06T09:29:39.660Z,53.17
2019-02-06T09:32:09.076Z,43.80
2019-02-06T09:34:37.739Z,44.07
2019-02-06T09:37:07.229Z,54.20
2019-02-06T09:39:35.859Z,44.90
2019-02-06T09:42:04.451Z,47.67
2019-02-06T09:44:33.118Z,45.40
2019-02-06T09:47:01.706Z,44.63
2019-02-06T09:49:30.307Z,47.50
2019-02-06T09:51:58.909Z,48.17
2019-02-06T09:54:27.528Z,50.97
2019-02-06T09:56:56.125Z,51.57
2019-02-06T09:59:24.717Z,49.33
2019-02-06T10:01:53.791Z,49.20
2019-02-06T10:04:22.384Z,45.30
2019-02-06T10:06:50.976Z,50.13
2019-02-06T10:09:23.095Z,49.35
2019-02-06T10:11:49.930Z,47.00
2019-02-06T10:14:18.527Z,47.90
2019-02-06T10:16:48.731Z,47.33
2019-02-06T10:19:17.381Z,50.60
2019-02-06T10:21:45.999Z,55.27
2019-02-06T10:24:14.587Z,47.77
2019-02-06T10:26:43.178Z,45.97
2019-02-06T10:29:11.771Z,44.58
2019-02-06T10:31:40.363Z,46.40
2019-02-06T10:34:09.867Z,47.67
2019-02-06T10:36:38.519Z,38.97
2019-02-06T10:39:08.451Z,45.60
2019-02-06T10:41:37.047Z,43.80
2019-02-06T10:44:05.703Z,42.03
2019-02-06T10:46:34.345Z,43.37
2019-02-06T10:49:03.318Z,46.50
2019-02-06T10:51:31.916Z,44.27
2019-02-06T10:54:00.496Z,41.90
2019-02-06T10:56:29.090Z,45.07
2019-02-06T10:58:57.682Z,47.90
2019-02-06T11:01:26.277Z,43.95
2019-02-06T11:03:54.870Z,53.37
2019-02-06T11:06:23.702Z,49.00
2019-02-06T11:08:52.340Z,42.70
2019-02-06T11:11:20.962Z,46.90
2019-02-06T11:13:49.889Z,48.37
2019-02-06T11:16:18.661Z,54.57
2019-02-06T11:18:47.278Z,46.97
2019-02-06T11:21:15.872Z,52.17
2019-02-06T11:23:44.478Z,47.40
2019-02-06T11:26:13.122Z,47.00
2019-02-06T11:28:41.715Z,53.90
2019-02-06T11:31:10.620Z,47.40
2019-02-06T11:33:39.210Z,47.30
2019-02-06T11:36:08.102Z,50.87
2019-02-06T11:38:36.868Z,47.23
2019-02-06T11:41:05.462Z,53.20
2019-02-06T11:43:34.053Z,47.83
2019-02-06T11:46:02.688Z,54.20
2019-02-06T11:48:31.321Z,57.07
2019-02-06T11:51:00.003Z,51.17
2019-02-06T11:53:29.075Z,52.37
2019-02-06T11:55:57.666Z,59.80
2019-02-06T11:58:27.814Z,50.37
2019-02-06T12:01:04.167Z,55.90
2019-02-06T12:03:32.751Z,56.33
2019-02-06T12:06:01.339Z,58.00
2019-02-06T12:08:31.249Z,60.63
2019-02-06T12:11:00.026Z,58.60
2019-02-06T12:13:28.652Z,58.13
2019-02-06T12:15:57.299Z,61.37
2019-02-06T12:18:25.976Z,59.98
2019-02-06T12:20:54.564Z,69.87
2019-02-06T12:23:31.952Z,66.67
2019-02-06T12:25:53.473Z,67.97
2019-02-06T12:28:22.061Z,68.30
2019-02-06T12:30:50.656Z,63.27
2019-02-06T12:33:19.244Z,66.82
2019-02-06T12:35:47.840Z,59.53
2019-02-06T12:38:16.427Z,63.20
2019-02-06T12:40:45.286Z,64.77
2019-02-06T12:43:13.871Z,67.30
2019-02-06T12:45:42.462Z,71.33
2019-02-06T12:48:11.392Z,64.23
2019-02-06T12:50:39.980Z,67.87
2019-02-06T12:53:09.128Z,65.72
2019-02-06T12:55:41.489Z,65.70
2019-02-06T12:58:11.255Z,64.90
2019-02-06T13:00:42.043Z,61.10
2019-02-06T13:03:10.945Z,69.17
2019-02-06T13:05:39.597Z,68.93
2019-02-06T13:08:08.645Z,71.85
2019-02-06T13:10:37.234Z,67.70
2019-02-06T13:13:05.831Z,68.13
2019-02-06T13:15:34.932Z,67.23
2019-02-06T13:18:03.560Z,63.30
2019-02-06T13:20:36.580Z,64.17
2019-02-06T13:23:06.072Z,68.03
2019-02-06T13:25:34.655Z,66.93
2019-02-06T13:28:03.246Z,62.88
2019-02-06T13:30:34.730Z,69.20
2019-02-06T13:33:03.321Z,60.43
2019-02-06T13:35:31.951Z,72.87
2019-02-06T13:38:00.537Z,71.67
2019-02-06T13:40:29.626Z,73.13
2019-02-06T13:42:58.713Z,67.43
2019-02-06T13:45:32.484Z,67.13
2019-02-06T13:48:01.059Z,60.07
2019-02-06T13:50:29.752Z,69.20
2019-02-06T13:52:58.343Z,66.57
2019-02-06T13:55:27.015Z,63.87
2019-02-06T13:57:55.614Z,71.43
2019-02-06T14:00:27.138Z,68.28
2019-02-06T14:02:55.726Z,60.37
2019-02-06T14:05:27.042Z,58.17
2019-02-06T14:07:57.837Z,58.53
2019-02-06T14:10:28.420Z,65.70
2019-02-06T14:12:57.010Z,66.00
2019-02-06T14:15:32.071Z,57.70
2019-02-06T14:18:01.240Z,61.03
2019-02-06T14:20:29.949Z,57.33
2019-02-06T14:23:01.780Z,60.13
2019-02-06T14:25:50.114Z,61.75
2019-02-06T14:28:44.772Z,60.47
2019-02-06T14:31:19.997Z,64.82
2019-02-06T14:33:57.864Z,59.80
2019-02-06T14:36:35.281Z,65.03
2019-02-06T14:39:15.964Z,62.20
2019-02-06T14:42:07.901Z,62.97
2019-02-06T14:44:45.199Z,58.30
2019-02-06T14:47:19.395Z,57.77
2019-02-06T14:49:51.275Z,60.27
2019-02-06T14:52:38.261Z,56.00
2019-02-06T14:55:27.813Z,58.80
2019-02-06T14:57:59.567Z,58.27
2019-02-06T15:00:59.284Z,68.10
2019-02-06T15:03:27.517Z,60.87
2019-02-06T15:06:02.463Z,58.13
2019-02-06T15:08:43.235Z,59.75
2019-02-06T15:11:19.658Z,58.00
2019-02-06T15:14:17.972Z,63.57
2019-02-06T15:17:15.207Z,61.77
2019-02-06T15:19:58.552Z,60.23
2019-02-06T15:22:47.033Z,65.73
2019-02-06T15:25:19.190Z,56.87
2019-02-06T15:28:02.883Z,65.20
2019-02-06T15:30:54.100Z,64.93
2019-02-06T15:33:40.726Z,66.42
2019-02-06T15:36:35.779Z,62.50
2019-02-06T15:39:28.640Z,72.40
2019-02-06T15:42:18.731Z,60.13
2019-02-06T15:44:50.832Z,63.30
2019-02-06T15:47:40.822Z,60.63
2019-02-06T15:50:29.903Z,65.42
2019-02-06T15:53:01.615Z,65.63
2019-02-06T15:55:59.111Z,61.97
2019-02-06T15:58:36.799Z,72.03
2019-02-06T16:01:57.201Z,63.57
2019-02-06T16:08:28.048Z,66.67
2019-02-06T16:11:06.255Z,63.83
2019-02-06T16:17:38.735Z,66.42
2019-02-06T16:20:32.558Z,67.43
2019-02-06T16:23:25.065Z,50.93
2019-02-06T16:32:34.866Z,49.35
2019-02-06T16:36:17.546Z,47.07
2019-02-06T16:39:05.131Z,48.20
2019-02-06T16:41:56.703Z,46.63
2019-02-06T16:44:51.082Z,52.43
2019-02-06T16:47:32.156Z,51.65
2019-02-06T16:50:06.738Z,52.33
2019-02-06T16:53:01.232Z,51.87
2019-02-06T16:55:38.944Z,51.10
2019-02-06T16:58:17.991Z,52.40
2019-02-06T17:00:58.635Z,56.75
2019-02-06T17:03:51.376Z,49.63
2019-02-06T17:06:38.023Z,48.20
2019-02-06T17:09:16.448Z,49.53
2019-02-06T17:12:10.320Z,55.23
2019-02-06T17:14:51.106Z,51.23
2019-02-06T17:17:28.638Z,51.77
2019-02-06T17:20:26.371Z,55.07
2019-02-06T17:23:06.734Z,51.13
2019-02-06T17:25:42.082Z,52.13
2019-02-06T17:28:19.924Z,56.77
2019-02-06T17:31:07.993Z,51.57
2019-02-06T17:33:58.186Z,50.80
2019-02-06T17:36:44.911Z,51.63
2019-02-06T17:39:25.728Z,54.80
2019-02-06T17:42:29.125Z,52.40
2019-02-06T17:45:17.312Z,51.77
2019-02-06T17:48:14.690Z,47.47
2019-02-06T17:51:04.709Z,52.13
2019-02-06T17:53:48.594Z,49.30
2019-02-06T17:56:17.214Z,51.87
2019-02-06T17:58:45.804Z,48.80
2019-02-06T18:01:17.614Z,53.55
2019-02-06T18:03:47.542Z,53.63
2019-02-06T18:06:17.048Z,60.98
2019-02-06T18:08:56.120Z,61.90
2019-02-06T18:11:15.967Z,62.93
2019-02-06T18:13:44.592Z,64.40
2019-02-06T18:16:21.090Z,61.73
2019-02-06T18:18:43.653Z,56.17
2019-02-06T18:21:12.504Z,56.08
2019-02-06T18:23:41.100Z,56.80
2019-02-06T18:26:10.668Z,51.73
2019-02-06T18:28:39.557Z,52.77
2019-02-06T18:31:09.522Z,49.80
2019-02-06T18:33:38.120Z,50.77
2019-02-06T18:36:07.048Z,59.03
2019-02-06T18:38:46.319Z,55.70
2019-02-06T18:41:07.283Z,56.03
2019-02-06T18:43:35.876Z,44.37
2019-02-06T18:46:04.466Z,51.70
2019-02-06T18:48:33.860Z,63.10
2019-02-06T18:51:02.524Z,54.13
2019-02-06T18:53:31.122Z,53.93
2019-02-06T18:55:59.888Z,55.23
2019-02-06T18:58:28.562Z,57.77
2019-02-06T19:00:57.245Z,52.93
2019-02-06T19:03:29.031Z,47.20
2019-02-06T19:05:57.861Z,59.20
2019-02-06T19:08:26.459Z,56.88
2019-02-06T19:10:55.114Z,52.20
2019-02-06T19:13:23.707Z,50.47
2019-02-06T19:15:56.481Z,48.83
2019-02-06T19:18:23.226Z,46.53
2019-02-06T19:20:51.945Z,52.10
2019-02-06T19:23:20.578Z,49.25
2019-02-06T19:25:49.178Z,49.60
2019-02-06T19:28:18.158Z,60.25
2019-02-06T19:30:46.954Z,48.60
2019-02-06T19:33:17.286Z,59.57
2019-02-06T19:35:45.984Z,57.70
2019-02-06T19:38:14.582Z,56.03
2019-02-06T19:40:43.243Z,58.97
2019-02-06T19:43:11.923Z,63.03
2019-02-06T19:45:40.920Z,70.60
2019-02-06T19:48:16.316Z,58.63
2019-02-06T19:50:45.960Z,52.60
2019-02-06T19:53:14.634Z,56.60
2019-02-06T19:55:43.310Z,47.57
2019-02-06T19:58:12.388Z,45.93
2019-02-06T20:00:40.986Z,44.27
2019-02-06T20:03:10.638Z,45.15
2019-02-06T20:05:39.234Z,43.90
2019-02-06T20:08:08.381Z,43.85
2019-02-06T20:10:39.952Z,40.00
2019-02-06T20:13:13.844Z,54.33
2019-02-06T20:15:40.009Z,69.37
2019-02-06T20:18:09.526Z,54.20
2019-02-06T20:20:38.162Z,48.43
2019-02-06T20:23:07.725Z,42.85
2019-02-06T20:25:36.452Z,52.03
2019-02-06T20:28:05.078Z,56.33
2019-02-06T20:30:33.778Z,41.68
2019-02-06T20:33:02.551Z,45.43
2019-02-06T20:35:31.351Z,63.13
2019-02-06T20:38:00.019Z,65.35
2019-02-06T20:40:34.227Z,47.23
2019-02-06T20:43:02.906Z,57.37
2019-02-06T20:45:31.915Z,58.23
2019-02-06T20:48:00.588Z,48.67
2019-02-06T20:50:31.757Z,52.83
2019-02-06T20:53:00.631Z,69.80
2019-02-06T20:55:29.333Z,59.08
2019-02-06T20:57:57.924Z,63.23
2019-02-06T21:00:29.277Z,63.90
2019-02-06T21:02:57.897Z,58.93
2019-02-06T21:05:26.536Z,55.93
2019-02-06T21:07:55.121Z,56.60
2019-02-06T21:10:28.965Z,63.50
2019-02-06T21:12:57.576Z,61.17
2019-02-06T21:15:26.198Z,55.88
2019-02-06T21:17:54.783Z,60.83
2019-02-06T21:20:24.410Z,61.53
2019-02-06T21:22:53.064Z,59.17
2019-02-06T21:25:25.301Z,55.37
2019-02-06T21:27:54.022Z,48.37
2019-02-06T21:30:34.141Z,51.63
2019-02-06T21:33:02.746Z,51.40
2019-02-06T21:35:31.343Z,55.07
2019-02-06T21:38:00.346Z,60.60
2019-02-06T21:40:35.017Z,52.87
2019-02-06T21:43:03.878Z,65.03
2019-02-06T21:45:32.466Z,67.27
2019-02-06T21:48:01.131Z,65.25
2019-02-06T21:50:29.786Z,70.52
2019-02-06T21:52:58.725Z,60.75
2019-02-06T21:55:27.816Z,63.23
2019-02-06T21:57:56.416Z,55.90
2019-02-06T22:00:30.696Z,47.53
2019-02-06T22:02:59.467Z,46.47
2019-02-06T22:05:28.071Z,52.10
2019-02-06T22:07:56.757Z,48.67
2019-02-06T22:10:25.445Z,56.10
2019-02-06T22:12:54.050Z,47.13
2019-02-06T22:15:28.332Z,54.33
2019-02-06T22:17:56.928Z,50.43
2019-02-06T22:20:26.041Z,47.70
2019-02-06T22:22:54.633Z,50.40
2019-02-06T22:25:23.231Z,56.17
2019-02-06T22:27:51.750Z,54.60
2019-02-06T22:30:24.728Z,55.12
2019-02-06T22:32:53.383Z,49.43
2019-02-06T22:35:22.360Z,52.03
2019-02-06T22:37:50.992Z,54.50
2019-02-06T22:40:21.282Z,61.10
2019-02-06T22:42:49.880Z,55.53
2019-02-06T22:45:20.370Z,51.33
2019-02-06T22:47:49.017Z,44.53
2019-02-06T22:50:20.079Z,45.45
2019-02-06T22:52:48.677Z,44.77
2019-02-06T22:55:17.276Z,53.68
2019-02-06T22:57:45.875Z,46.37
2019-02-06T23:00:31.486Z,47.87
2019-02-06T23:03:00.354Z,39.97
2019-02-06T23:05:29.010Z,35.27
2019-02-06T23:07:57.603Z,46.20
2019-02-06T23:10:26.188Z,52.30
2019-02-06T23:12:54.787Z,43.00
2019-02-06T23:15:23.443Z,40.25
2019-02-06T23:17:52.458Z,46.98
2019-02-06T23:20:21.052Z,52.63
2019-02-06T23:22:49.683Z,57.30
2019-02-06T23:25:18.294Z,50.73
2019-02-06T23:27:46.886Z,73.23
2019-02-06T23:30:16.134Z,74.00
2019-02-06T23:32:45.003Z,51.50
2019-02-06T23:35:13.659Z,47.08
2019-02-06T23:37:42.299Z,46.53
2019-02-06T23:40:14.141Z,48.80
2019-02-06T23:42:42.796Z,52.10
2019-02-06T23:45:11.906Z,49.83
2019-02-06T23:47:41.144Z,53.03
2019-02-06T23:50:15.872Z,80.90
2019-02-06T23:52:44.453Z,77.43
2019-02-06T23:55:13.071Z,73.57
2019-02-06T23:57:41.777Z,68.77
